Time;durP1;ratioP1;P1;durP2;ratioP2;P2;SDS_P1;SDS_P2;PMS_P1;PMS_P2;Temp;Humidity;BMP_temperature;BMP_pressure;BME280_temperature;BME280_humidity;BME280_pressure;Samples;Min_cycle;Max_cycle;Signal;HPM_P1;HPM_P2
2021/07/03 00:02:17;;;;;;;9.35;2.50;;;22.90;96.70;;;;;;5006099;28;20585;-73
2021/07/03 00:04:46;;;;;;;9.75;2.83;;;22.90;96.70;;;;;;5000513;28;20045;-74
2021/07/03 00:07:15;;;;;;;8.30;3.03;;;23.00;96.70;;;;;;5005275;28;20121;-73
2021/07/03 00:09:43;;;;;;;8.32;3.10;;;22.90;96.70;;;;;;5006463;28;20088;-73
2021/07/03 00:12:12;;;;;;;6.15;2.40;;;22.90;96.70;;;;;;5004912;28;20120;-74
2021/07/03 00:14:41;;;;;;;5.65;2.42;;;22.90;96.70;;;;;;5003725;28;20503;-74
2021/07/03 00:17:09;;;;;;;8.23;3.08;;;22.90;96.70;;;;;;5005026;28;20071;-73
2021/07/03 00:19:39;;;;;;;8.55;2.92;;;22.90;96.70;;;;;;5002672;28;20052;-73
2021/07/03 00:22:07;;;;;;;7.80;2.63;;;22.90;96.70;;;;;;5003839;28;20038;-73
2021/07/03 00:24:36;;;;;;;6.95;2.72;;;22.90;96.70;;;;;;5020199;28;20042;-74
2021/07/03 00:27:05;;;;;;;10.27;3.00;;;22.80;96.70;;;;;;5009918;28;20120;-73
2021/07/03 00:29:33;;;;;;;7.32;2.58;;;22.80;96.70;;;;;;5024285;28;20065;-74
2021/07/03 00:32:01;;;;;;;7.28;2.78;;;22.80;96.70;;;;;;5022188;28;20449;-74
2021/07/03 00:34:29;;;;;;;8.90;3.13;;;22.80;96.70;;;;;;5006400;28;20411;-74
2021/07/03 00:36:59;;;;;;;6.35;2.63;;;22.80;96.70;;;;;;5009790;28;20046;-74
2021/07/03 00:39:28;;;;;;;7.28;2.45;;;22.70;96.70;;;;;;5004106;28;20749;-74
2021/07/03 00:41:57;;;;;;;9.68;3.00;;;22.70;96.70;;;;;;5007805;28;20041;-74
2021/07/03 00:44:29;;;;;;;11.98;2.58;;;22.80;96.70;;;;;;5007931;28;20046;-74
2021/07/03 00:47:01;;;;;;;5.67;2.57;;;22.70;96.70;;;;;;4988515;28;20048;-74
2021/07/03 00:49:31;;;;;;;10.27;2.75;;;22.60;96.70;;;;;;5006018;28;20327;-74
2021/07/03 00:52:04;;;;;;;6.35;2.38;;;22.60;96.70;;;;;;5006079;28;20516;-74
2021/07/03 00:54:35;;;;;;;9.70;3.05;;;22.50;96.70;;;;;;5006044;28;20129;-74
2021/07/03 00:57:05;;;;;;;8.02;2.90;;;22.40;96.70;;;;;;4998976;28;20042;-74
2021/07/03 00:59:44;;;;;;;6.60;2.78;;;22.50;96.70;;;;;;5010261;28;20075;-74
2021/07/03 01:02:19;;;;;;;6.47;2.53;;;22.50;96.70;;;;;;5005263;28;20040;-74
2021/07/03 01:04:53;;;;;;;9.15;2.47;;;22.40;96.70;;;;;;5010000;28;20515;-74
2021/07/03 01:07:32;;;;;;;7.07;2.85;;;22.40;96.70;;;;;;5007138;28;20034;-74
2021/07/03 01:10:02;;;;;;;6.65;2.38;;;22.40;96.70;;;;;;5025005;28;20424;-73
2021/07/03 01:12:33;;;;;;;9.95;3.13;;;22.50;96.70;;;;;;5003149;28;20065;-73
2021/07/03 01:15:02;;;;;;;8.75;2.72;;;22.40;96.70;;;;;;5006419;28;20057;-74
2021/07/03 01:17:36;;;;;;;6.03;2.90;;;22.50;96.70;;;;;;5008581;28;20153;-74
2021/07/03 01:20:06;;;;;;;8.65;2.70;;;22.50;96.70;;;;;;5006726;28;20040;-74
2021/07/03 01:22:37;;;;;;;8.45;2.63;;;22.40;96.70;;;;;;4987414;28;20832;-74
2021/07/03 01:25:06;;;;;;;5.88;2.47;;;22.40;96.70;;;;;;5004463;28;20520;-74
2021/07/03 01:27:35;;;;;;;8.23;2.30;;;22.30;96.70;;;;;;5010268;28;20064;-74
2021/07/03 01:30:06;;;;;;;6.55;2.30;;;22.30;96.70;;;;;;5003890;28;20034;-74
2021/07/03 01:32:35;;;;;;;7.20;2.22;;;22.20;96.70;;;;;;5003704;28;20042;-75
2021/07/03 01:35:05;;;;;;;5.38;2.20;;;22.20;96.70;;;;;;5003952;28;20422;-74
2021/07/03 01:37:37;;;;;;;7.88;2.80;;;22.20;96.70;;;;;;5002056;28;20057;-74
2021/07/03 01:40:07;;;;;;;6.22;2.00;;;22.10;96.70;;;;;;5006019;28;20468;-74
2021/07/03 01:42:39;;;;;;;6.03;2.05;;;22.20;96.70;;;;;;4987217;28;20050;-73
2021/07/03 01:45:09;;;;;;;8.85;2.75;;;22.10;96.70;;;;;;5020701;28;20050;-74
2021/07/03 01:47:42;;;;;;;8.27;2.78;;;22.10;96.70;;;;;;5023602;28;20081;-75
2021/07/03 01:50:12;;;;;;;9.55;3.28;;;22.10;96.70;;;;;;5002047;28;20050;-74
2021/07/03 01:52:42;;;;;;;7.47;2.47;;;22.10;96.70;;;;;;5012118;28;20053;-74
2021/07/03 01:55:15;;;;;;;5.90;2.08;;;22.10;96.70;;;;;;5005938;28;20107;-74
2021/07/03 01:57:43;;;;;;;6.07;1.85;;;22.20;96.70;;;;;;5006433;28;20054;-73
2021/07/03 02:00:23;;;;;;;9.15;2.47;;;22.10;96.70;;;;;;5001150;28;20216;-74
2021/07/03 02:03:02;;;;;;;9.63;2.30;;;22.00;96.70;;;;;;5004766;28;20132;-73
2021/07/03 02:05:39;;;;;;;5.03;2.28;;;22.10;96.70;;;;;;5006650;28;20049;-74
2021/07/03 02:08:12;;;;;;;6.65;2.03;;;22.10;96.70;;;;;;5002243;28;20141;-74
2021/07/03 02:10:42;;;;;;;5.63;2.20;;;22.10;96.70;;;;;;5001734;28;20049;-74
2021/07/03 02:13:10;;;;;;;5.63;2.15;;;22.00;96.70;;;;;;5001881;28;20049;-74
2021/07/03 02:15:40;;;;;;;7.30;2.40;;;22.00;96.70;;;;;;5018645;28;20137;-74
2021/07/03 02:18:28;;;;;;;4.45;1.92;;;22.00;96.70;;;;;;4999413;28;20136;-74
2021/07/03 02:20:59;;;;;;;5.78;1.63;;;22.00;96.70;;;;;;5003218;28;20045;-74
2021/07/03 02:23:32;;;;;;;7.68;2.08;;;21.90;96.70;;;;;;5004739;28;20050;-74
2021/07/03 02:26:01;;;;;;;8.27;2.45;;;21.90;96.70;;;;;;4986873;28;20516;-74
2021/07/03 02:28:34;;;;;;;6.75;2.03;;;21.90;96.70;;;;;;5008233;28;20364;-75
2021/07/03 02:31:23;;;;;;;5.45;2.30;;;21.90;96.70;;;;;;5004862;28;20451;-74
2021/07/03 02:34:00;;;;;;;8.10;2.20;;;21.80;96.70;;;;;;5016199;28;20388;-74
2021/07/03 02:36:28;;;;;;;4.57;1.92;;;21.70;96.70;;;;;;5004675;28;20146;-73
2021/07/03 02:39:00;;;;;;;4.88;2.00;;;21.60;96.70;;;;;;5001845;28;20046;-74
2021/07/03 02:41:40;;;;;;;6.80;2.30;;;21.60;96.70;;;;;;5002832;28;20038;-74
2021/07/03 02:44:09;;;;;;;5.03;2.15;;;21.60;96.70;;;;;;5000480;28;20050;-74
2021/07/03 02:46:37;;;;;;;6.78;2.10;;;21.60;96.70;;;;;;5001528;28;20038;-74
2021/07/03 02:49:07;;;;;;;6.72;2.17;;;21.60;96.70;;;;;;5017199;28;20097;-74
2021/07/03 02:51:37;;;;;;;8.13;1.98;;;21.50;96.70;;;;;;5002826;28;20041;-73
2021/07/03 02:54:07;;;;;;;6.25;1.83;;;21.60;96.70;;;;;;5006578;28;20045;-73
2021/07/03 02:56:35;;;;;;;5.13;2.20;;;21.60;96.70;;;;;;5001973;28;20046;-73
2021/07/03 02:59:05;;;;;;;7.28;2.00;;;21.60;96.70;;;;;;5006572;28;20068;-73
2021/07/03 03:01:33;;;;;;;2.95;1.70;;;21.60;96.70;;;;;;5001528;28;20049;-73
2021/07/03 03:04:05;;;;;;;7.32;2.55;;;21.50;96.70;;;;;;5005696;28;20053;-74
2021/07/03 03:06:34;;;;;;;7.63;1.90;;;21.50;96.70;;;;;;4992846;28;20041;-72
2021/07/03 03:09:03;;;;;;;5.22;1.85;;;21.50;96.70;;;;;;5005659;28;20770;-75
2021/07/03 03:11:37;;;;;;;5.45;2.28;;;21.50;96.70;;;;;;5004590;28;20046;-74
2021/07/03 03:14:05;;;;;;;5.35;2.05;;;21.50;96.70;;;;;;5002008;28;20042;-75
2021/07/03 03:16:34;;;;;;;8.88;2.78;;;21.50;96.70;;;;;;5018448;28;20054;-74
2021/07/03 03:19:06;;;;;;;7.80;2.13;;;21.40;96.70;;;;;;5004303;28;20133;-75
2021/07/03 03:21:35;;;;;;;3.08;1.80;;;21.40;96.70;;;;;;5000694;28;20049;-75
2021/07/03 03:24:04;;;;;;;4.32;1.63;;;21.30;96.70;;;;;;5005915;28;20037;-74
2021/07/03 03:26:34;;;;;;;5.50;1.73;;;21.30;96.70;;;;;;5003254;28;20053;-75
2021/07/03 03:29:05;;;;;;;8.70;1.83;;;21.40;96.70;;;;;;4987546;28;20562;-74
2021/07/03 03:31:34;;;;;;;4.68;2.10;;;21.40;96.70;;;;;;4998977;28;20034;-74
2021/07/03 03:34:04;;;;;;;6.32;2.28;;;21.40;96.70;;;;;;5001745;28;20491;-75
2021/07/03 03:36:33;;;;;;;5.38;1.90;;;21.50;96.70;;;;;;5002022;28;20042;-75
2021/07/03 03:39:03;;;;;;;8.65;2.05;;;21.50;96.70;;;;;;5004950;28;20042;-75
2021/07/03 03:41:32;;;;;;;3.25;1.73;;;21.50;96.70;;;;;;5017275;28;20407;-75
2021/07/03 03:44:06;;;;;;;5.78;1.73;;;21.60;96.70;;;;;;5007325;28;20041;-75
2021/07/03 03:46:35;;;;;;;7.20;2.60;;;21.60;96.70;;;;;;5017944;28;20257;-75
2021/07/03 03:49:03;;;;;;;4.80;1.67;;;21.40;96.70;;;;;;5010164;28;20053;-75
2021/07/03 03:51:31;;;;;;;7.47;2.20;;;21.40;96.70;;;;;;4996675;28;20100;-75
2021/07/03 03:54:00;;;;;;;7.05;2.85;;;21.40;96.70;;;;;;5002659;28;20096;-75
2021/07/03 03:56:30;;;;;;;7.13;2.15;;;21.40;96.70;;;;;;5005294;28;20392;-76
2021/07/03 03:59:00;;;;;;;7.20;2.47;;;21.30;96.70;;;;;;5008308;28;20507;-74
2021/07/03 04:01:32;;;;;;;6.55;2.75;;;21.30;96.70;;;;;;5004806;28;20062;-75
2021/07/03 04:04:02;;;;;;;6.25;2.20;;;21.20;96.70;;;;;;5008495;28;20054;-75
2021/07/03 04:06:31;;;;;;;5.50;2.15;;;21.10;96.70;;;;;;4991795;28;20046;-75
2021/07/03 04:09:00;;;;;;;6.47;2.20;;;21.10;96.70;;;;;;5007467;28;20124;-75
2021/07/03 04:11:32;;;;;;;7.18;2.28;;;21.10;96.70;;;;;;5023026;28;20125;-75
2021/07/03 04:14:01;;;;;;;5.60;1.80;;;21.20;96.70;;;;;;5007019;28;20125;-75
2021/07/03 04:16:29;;;;;;;10.40;3.58;;;21.20;96.70;;;;;;5017988;28;20634;-75
2021/07/03 04:18:59;;;;;;;15.40;4.60;;;21.20;96.70;;;;;;5006467;28;20120;-75
2021/07/03 04:21:27;;;;;;;12.10;3.95;;;21.10;96.70;;;;;;5007227;28;20038;-75
2021/07/03 04:23:56;;;;;;;9.13;2.85;;;21.20;96.70;;;;;;5008933;28;20050;-74
2021/07/03 04:26:24;;;;;;;6.95;2.90;;;21.20;96.70;;;;;;4985111;28;20049;-74
2021/07/03 04:28:53;;;;;;;7.75;2.80;;;21.20;96.70;;;;;;5011764;28;20439;-75
2021/07/03 04:31:21;;;;;;;7.00;2.47;;;21.30;96.70;;;;;;5010479;28;20096;-75
2021/07/03 04:33:50;;;;;;;3.83;1.90;;;21.30;96.70;;;;;;4990583;28;20057;-74
2021/07/03 04:36:20;;;;;;;3.95;1.85;;;21.40;96.70;;;;;;5006797;28;20046;-74
2021/07/03 04:38:48;;;;;;;6.93;1.83;;;21.50;96.70;;;;;;5006772;28;20041;-74
2021/07/03 04:41:17;;;;;;;7.90;2.38;;;21.40;96.70;;;;;;5008328;28;20470;-74
2021/07/03 04:43:45;;;;;;;7.72;2.30;;;21.50;96.70;;;;;;5006815;28;20141;-75
2021/07/03 04:46:14;;;;;;;6.97;2.15;;;21.40;96.70;;;;;;5007779;28;20038;-75
2021/07/03 04:48:42;;;;;;;2.50;1.48;;;21.50;96.70;;;;;;5002785;28;20591;-76
2021/07/03 04:51:11;;;;;;;5.72;1.90;;;21.60;96.70;;;;;;4988657;28;20049;-75
2021/07/03 04:53:43;;;;;;;7.05;2.67;;;21.60;96.70;;;;;;5006335;28;20064;-75
2021/07/03 04:56:11;;;;;;;7.43;2.58;;;21.60;96.70;;;;;;5007557;28;20049;-75
2021/07/03 04:58:40;;;;;;;7.88;2.42;;;21.60;96.70;;;;;;5007246;28;20415;-75
2021/07/03 05:01:08;;;;;;;8.25;1.98;;;21.60;96.70;;;;;;5004893;28;20447;-74
2021/07/03 05:03:37;;;;;;;7.05;2.13;;;21.50;96.70;;;;;;5006246;28;20062;-75
2021/07/03 05:06:05;;;;;;;6.68;2.83;;;21.60;96.70;;;;;;5010126;28;20515;-75
2021/07/03 05:08:35;;;;;;;10.07;2.67;;;21.70;96.70;;;;;;5003969;28;20120;-74
2021/07/03 05:11:05;;;;;;;5.18;2.20;;;21.70;96.70;;;;;;4985541;28;20038;-74
2021/07/03 05:13:34;;;;;;;5.43;2.58;;;21.70;96.70;;;;;;4989865;28;20448;-75
2021/07/03 05:16:04;;;;;;;10.52;3.28;;;21.80;96.70;;;;;;4991649;28;20455;-75
2021/07/03 05:18:33;;;;;;;12.73;3.38;;;21.70;96.70;;;;;;5006864;28;20038;-75
2021/07/03 05:21:01;;;;;;;8.05;2.95;;;21.70;96.70;;;;;;5006241;28;21181;-75
2021/07/03 05:23:30;;;;;;;14.07;3.88;;;21.60;96.70;;;;;;5006027;28;20373;-75
2021/07/03 05:25:58;;;;;;;8.93;3.15;;;21.50;96.70;;;;;;5009293;28;20121;-75
2021/07/03 05:28:28;;;;;;;10.18;3.50;;;21.40;96.70;;;;;;5005330;28;20042;-75
2021/07/03 05:30:57;;;;;;;7.75;3.00;;;21.50;96.70;;;;;;5005247;28;20038;-75
2021/07/03 05:33:27;;;;;;;7.05;3.13;;;21.60;96.70;;;;;;5006086;28;20041;-75
2021/07/03 05:35:56;;;;;;;9.63;3.17;;;21.60;96.70;;;;;;4994946;28;20127;-74
2021/07/03 05:38:40;;;;;;;10.43;2.90;;;21.60;96.70;;;;;;5008507;28;20073;-74
2021/07/03 05:41:09;;;;;;;10.13;2.90;;;21.60;96.70;;;;;;5005541;28;20552;-74
2021/07/03 05:43:39;;;;;;;6.50;2.60;;;21.60;96.70;;;;;;5001817;28;20045;-74
2021/07/03 05:46:09;;;;;;;9.20;2.78;;;21.60;96.70;;;;;;5005272;28;20500;-74
2021/07/03 05:48:40;;;;;;;5.90;2.55;;;21.60;96.70;;;;;;5007466;28;20730;-73
2021/07/03 05:51:10;;;;;;;8.02;2.67;;;21.70;96.70;;;;;;5019648;28;20469;-74
2021/07/03 05:53:38;;;;;;;6.20;2.58;;;21.90;96.70;;;;;;5008380;28;20159;-74
2021/07/03 05:56:07;;;;;;;8.10;2.47;;;21.90;96.70;;;;;;5006023;28;20041;-74
2021/07/03 05:58:36;;;;;;;6.07;2.35;;;22.00;96.70;;;;;;5004760;28;20041;-74
2021/07/03 06:01:06;;;;;;;8.55;2.25;;;22.10;96.70;;;;;;5009049;28;20582;-80
2021/07/03 06:03:34;;;;;;;6.50;2.15;;;22.30;96.70;;;;;;5019521;28;20128;-78
2021/07/03 06:06:03;;;;;;;9.63;2.35;;;22.40;96.70;;;;;;5005181;28;20044;-79
2021/07/03 06:08:31;;;;;;;4.95;2.00;;;22.50;96.70;;;;;;5004836;28;20045;-78
2021/07/03 06:11:01;;;;;;;7.68;2.40;;;22.40;96.70;;;;;;5011456;28;20080;-78
2021/07/03 06:13:30;;;;;;;6.05;2.45;;;22.40;96.70;;;;;;5003931;28;20049;-76
2021/07/03 06:15:59;;;;;;;4.70;1.92;;;22.40;96.70;;;;;;5005634;28;20060;-77
2021/07/03 06:18:29;;;;;;;10.15;3.30;;;22.50;96.70;;;;;;5004862;28;20038;-75
2021/07/03 06:20:58;;;;;;;8.02;2.83;;;22.60;96.70;;;;;;5007990;28;21833;-75
2021/07/03 06:23:27;;;;;;;7.25;3.25;;;22.60;96.70;;;;;;5001352;28;20042;-74
2021/07/03 06:26:00;;;;;;;7.45;3.35;;;22.70;96.70;;;;;;5007393;28;20514;-75
2021/07/03 06:28:31;;;;;;;9.05;2.88;;;22.70;96.70;;;;;;5005943;28;20040;-75
2021/07/03 06:31:00;;;;;;;8.38;3.35;;;22.80;96.70;;;;;;5005968;28;20555;-75
2021/07/03 06:33:30;;;;;;;8.80;3.40;;;22.90;96.70;;;;;;5005430;28;20044;-75
2021/07/03 06:35:58;;;;;;;11.68;3.38;;;22.90;96.70;;;;;;4986349;28;20054;-74
2021/07/03 06:38:27;;;;;;;9.30;3.60;;;23.00;96.70;;;;;;5020222;28;20377;-75
2021/07/03 06:40:55;;;;;;;10.18;3.35;;;23.10;96.70;;;;;;5005031;28;20133;-76
2021/07/03 06:43:24;;;;;;;12.20;3.88;;;23.20;96.70;;;;;;5007314;28;20135;-75
2021/07/03 06:45:57;;;;;;;7.30;2.90;;;23.30;96.70;;;;;;5022675;28;20046;-76
2021/07/03 06:48:26;;;;;;;11.88;4.35;;;23.30;96.70;;;;;;5000991;28;20450;-76
2021/07/03 06:50:56;;;;;;;9.68;4.13;;;23.40;96.70;;;;;;5007783;28;20500;-76
2021/07/03 06:53:25;;;;;;;7.95;3.90;;;23.40;96.70;;;;;;5000880;28;20427;-75
2021/07/03 06:55:53;;;;;;;9.25;3.35;;;23.50;96.70;;;;;;5022756;28;20046;-76
2021/07/03 06:58:22;;;;;;;11.90;4.00;;;23.60;96.70;;;;;;5003289;28;20092;-76
2021/07/03 07:00:50;;;;;;;12.05;3.83;;;23.70;96.70;;;;;;5003045;28;20053;-75
2021/07/03 07:03:18;;;;;;;10.43;3.85;;;23.80;96.70;;;;;;5002464;28;20128;-76
2021/07/03 07:05:47;;;;;;;9.13;3.95;;;23.90;96.70;;;;;;5011050;28;20056;-75
2021/07/03 07:08:17;;;;;;;13.02;3.88;;;24.00;96.70;;;;;;5001712;28;20050;-76
2021/07/03 07:10:46;;;;;;;10.23;3.75;;;24.10;96.70;;;;;;5004085;28;20044;-75
2021/07/03 07:13:14;;;;;;;13.43;3.80;;;24.20;96.70;;;;;;5001649;28;20503;-75
2021/07/03 07:15:43;;;;;;;9.63;3.97;;;24.30;96.70;;;;;;5005777;28;20041;-75
2021/07/03 07:18:12;;;;;;;9.25;3.30;;;24.20;96.70;;;;;;5006936;28;20515;-75
2021/07/03 07:20:40;;;;;;;6.82;3.13;;;24.20;96.70;;;;;;5006075;28;20061;-75
2021/07/03 07:23:09;;;;;;;9.55;3.72;;;24.30;96.70;;;;;;5003042;28;20396;-75
2021/07/03 07:25:39;;;;;;;8.38;3.22;;;24.30;96.70;;;;;;5002076;28;20954;-74
2021/07/03 07:28:07;;;;;;;9.35;3.60;;;24.30;96.70;;;;;;5007965;28;20121;-75
2021/07/03 07:30:36;;;;;;;9.57;3.33;;;24.40;96.70;;;;;;5004333;28;20038;-75
2021/07/03 07:33:04;;;;;;;13.15;4.03;;;24.50;96.70;;;;;;5007304;28;20053;-75
2021/07/03 07:35:33;;;;;;;10.73;3.00;;;24.50;96.70;;;;;;5002665;28;20073;-75
2021/07/03 07:38:02;;;;;;;9.48;3.80;;;24.60;96.70;;;;;;5020625;28;20399;-76
2021/07/03 07:40:30;;;;;;;8.80;3.53;;;24.70;96.70;;;;;;5004900;28;20048;-76
2021/07/03 07:43:00;;;;;;;8.93;3.35;;;24.70;96.70;;;;;;5004385;28;20049;-76
2021/07/03 07:45:29;;;;;;;12.50;3.22;;;24.80;96.70;;;;;;5017620;28;20038;-76
2021/07/03 07:47:58;;;;;;;10.30;3.60;;;24.80;96.70;;;;;;5002128;28;20073;-75
2021/07/03 07:50:26;;;;;;;8.50;3.38;;;24.90;96.70;;;;;;5006345;28;20045;-76
2021/07/03 07:52:55;;;;;;;13.00;3.75;;;25.00;96.70;;;;;;5003834;28;20400;-76
2021/07/03 07:55:23;;;;;;;8.30;3.17;;;25.10;96.70;;;;;;5001012;28;20046;-75
2021/07/03 07:57:52;;;;;;;9.00;2.83;;;25.20;96.70;;;;;;5003060;28;20633;-76
2021/07/03 08:00:22;;;;;;;10.20;3.08;;;25.30;96.70;;;;;;5003013;28;20042;-75
2021/07/03 08:02:51;;;;;;;8.25;2.67;;;25.40;96.70;;;;;;5003897;28;20046;-76
2021/07/03 08:05:20;;;;;;;9.05;2.88;;;25.40;96.70;;;;;;5000815;28;20038;-75
2021/07/03 08:07:49;;;;;;;6.65;3.15;;;25.40;96.70;;;;;;5002515;28;20069;-75
2021/07/03 08:10:17;;;;;;;7.40;3.30;;;25.40;96.70;;;;;;5007112;28;20388;-75
2021/07/03 08:12:46;;;;;;;9.88;3.58;;;25.40;96.70;;;;;;5003203;28;20073;-75
2021/07/03 08:15:15;;;;;;;10.10;3.25;;;25.40;96.70;;;;;;5005350;28;20030;-75
2021/07/03 08:17:45;;;;;;;8.95;2.85;;;25.40;96.70;;;;;;5005860;28;20994;-74
2021/07/03 08:20:16;;;;;;;6.25;2.90;;;25.40;96.70;;;;;;5002277;28;20487;-74
2021/07/03 08:22:45;;;;;;;12.30;3.17;;;25.40;96.70;;;;;;5008237;28;20042;-74
2021/07/03 08:25:14;;;;;;;7.05;3.10;;;25.50;96.70;;;;;;5003639;28;20124;-74
2021/07/03 08:27:42;;;;;;;10.50;3.13;;;25.50;96.70;;;;;;5002861;28;20061;-74
2021/07/03 08:30:13;;;;;;;10.30;3.78;;;25.40;96.70;;;;;;5003669;28;20045;-74
2021/07/03 08:32:41;;;;;;;10.77;3.33;;;25.50;96.70;;;;;;5003917;28;20388;-74
2021/07/03 08:35:14;;;;;;;7.68;3.08;;;25.60;96.70;;;;;;4999272;28;20100;-76
2021/07/03 08:37:43;;;;;;;6.70;2.90;;;25.80;96.70;;;;;;5002502;28;20064;-76
2021/07/03 08:40:13;;;;;;;10.80;3.53;;;25.90;96.70;;;;;;5002170;28;20439;-75
2021/07/03 08:42:41;;;;;;;8.75;3.03;;;26.00;96.70;;;;;;5002133;28;20629;-76
2021/07/03 08:45:12;;;;;;;7.03;2.63;;;26.10;96.70;;;;;;5000699;28;20060;-75
2021/07/03 08:47:41;;;;;;;6.43;2.63;;;26.10;96.70;;;;;;5003821;28;20049;-75
2021/07/03 08:50:14;;;;;;;7.60;3.10;;;26.10;96.70;;;;;;4987241;28;20056;-75
2021/07/03 08:52:43;;;;;;;9.50;2.30;;;26.20;96.70;;;;;;5004137;28;20056;-75
2021/07/03 08:55:19;;;;;;;10.88;2.83;;;26.20;96.70;;;;;;5009022;28;20073;-78
2021/07/03 08:57:50;;;;;;;5.53;2.50;;;26.40;96.70;;;;;;5006771;28;20056;-77
2021/07/03 09:00:22;;;;;;;4.95;2.33;;;26.40;96.70;;;;;;5006004;28;20050;-78
2021/07/03 09:02:52;;;;;;;7.50;2.38;;;26.50;96.70;;;;;;5005451;28;20041;-77
2021/07/03 09:05:29;;;;;;;5.30;2.50;;;26.50;96.70;;;;;;5003983;28;20046;-78
2021/07/03 09:08:02;;;;;;;5.35;2.20;;;26.70;96.70;;;;;;5009938;28;20137;-77
2021/07/03 09:10:32;;;;;;;4.20;2.20;;;26.70;96.70;;;;;;5006865;28;20614;-78
2021/07/03 09:13:02;;;;;;;7.30;2.72;;;26.70;96.70;;;;;;5005030;28;20095;-79
2021/07/03 09:15:32;;;;;;;7.82;2.75;;;26.70;96.70;;;;;;5006902;28;20339;-77
2021/07/03 09:18:03;;;;;;;5.55;2.20;;;26.70;96.70;;;;;;5007248;28;20439;-77
2021/07/03 09:20:36;;;;;;;4.60;1.85;;;26.80;96.70;;;;;;5030177;28;20049;-78
2021/07/03 09:23:08;;;;;;;4.70;2.15;;;26.90;96.70;;;;;;5004831;28;20045;-77
2021/07/03 09:25:37;;;;;;;4.15;2.30;;;26.90;96.70;;;;;;5017989;28;20050;-78
2021/07/03 09:28:13;;;;;;;3.65;2.20;;;27.10;96.70;;;;;;5003287;28;20403;-77
2021/07/03 09:30:43;;;;;;;3.42;1.90;;;27.10;96.70;;;;;;5004931;28;20045;-75
2021/07/03 09:33:18;;;;;;;2.28;1.60;;;27.20;96.70;;;;;;5018270;28;20107;-75
2021/07/03 09:35:59;;;;;;;4.32;1.90;;;27.10;96.70;;;;;;5003418;28;20502;-75
2021/07/03 09:38:30;;;;;;;4.60;2.20;;;27.10;96.70;;;;;;5000691;28;20423;-75
2021/07/03 09:41:07;;;;;;;5.35;2.53;;;27.20;96.70;;;;;;5008382;28;20049;-77
2021/07/03 09:43:35;;;;;;;;;;;27.30;96.70;;;;;;5007832;28;20045;-77
2021/07/03 09:46:03;;;;;;;5.88;2.30;;;27.40;96.70;;;;;;5007379;28;19972;-78
2021/07/03 09:48:32;;;;;;;3.90;2.60;;;27.60;96.70;;;;;;5004738;28;20058;-77
2021/07/03 09:51:09;;;;;;;4.22;2.50;;;27.60;96.60;;;;;;5000169;28;20045;-77
2021/07/03 09:53:38;;;;;;;7.80;2.42;;;27.50;96.30;;;;;;5005704;28;20088;-78
2021/07/03 09:56:08;;;;;;;6.85;3.20;;;27.30;96.70;;;;;;4984924;28;20049;-77
2021/07/03 09:58:37;;;;;;;6.18;2.72;;;27.40;96.60;;;;;;5004503;28;20391;-77
2021/07/03 10:01:06;;;;;;;5.57;2.50;;;27.60;96.50;;;;;;5002924;28;20092;-76
2021/07/03 10:03:37;;;;;;;5.45;2.40;;;27.70;95.70;;;;;;5022081;28;20141;-76
2021/07/03 10:06:09;;;;;;;6.07;2.60;;;27.70;95.70;;;;;;5004427;28;20540;-76
2021/07/03 10:08:40;;;;;;;4.47;2.50;;;27.70;95.40;;;;;;5004248;28;20096;-76
2021/07/03 10:11:11;;;;;;;4.90;2.38;;;27.90;96.10;;;;;;5004170;28;20507;-76
2021/07/03 10:13:42;;;;;;;5.88;2.42;;;28.10;95.40;;;;;;5002756;28;20200;-76
2021/07/03 10:16:13;;;;;;;5.80;2.80;;;28.30;94.50;;;;;;5003180;28;20038;-76
2021/07/03 10:18:42;;;;;;;6.95;2.58;;;28.30;94.20;;;;;;5004153;28;20404;-77
2021/07/03 10:21:14;;;;;;;7.22;2.83;;;28.40;94.60;;;;;;5017825;28;20132;-76
2021/07/03 10:23:44;;;;;;;6.50;2.33;;;28.50;94.20;;;;;;5003269;28;20049;-76
2021/07/03 10:26:14;;;;;;;5.57;2.70;;;28.60;93.90;;;;;;5018063;28;20044;-76
2021/07/03 10:28:49;;;;;;;4.40;2.35;;;28.70;93.40;;;;;;4998834;28;20044;-75
2021/07/03 10:31:18;;;;;;;6.28;2.72;;;28.60;93.40;;;;;;5006619;28;20057;-76
2021/07/03 10:33:48;;;;;;;4.95;2.63;;;28.60;93.50;;;;;;5015532;28;20077;-76
2021/07/03 10:36:29;;;;;;;6.60;2.90;;;28.70;92.70;;;;;;5002725;28;20034;-77
2021/07/03 10:39:00;;;;;;;5.25;2.63;;;28.80;92.10;;;;;;5003653;28;20042;-77
2021/07/03 10:41:30;;;;;;;6.68;2.33;;;28.70;92.00;;;;;;5020564;28;20520;-77
2021/07/03 10:44:05;;;;;;;5.05;2.70;;;28.90;92.20;;;;;;5001953;28;20453;-77
2021/07/03 10:46:36;;;;;;;4.40;2.63;;;29.10;91.80;;;;;;5007025;28;20466;-76
2021/07/03 10:49:06;;;;;;;4.40;2.20;;;29.20;91.00;;;;;;5002904;28;20053;-76
2021/07/03 10:51:38;;;;;;;5.57;2.55;;;29.10;90.30;;;;;;5006975;28;20038;-75
2021/07/03 10:54:13;;;;;;;6.47;2.42;;;29.10;91.20;;;;;;5004137;28;20042;-76
2021/07/03 10:56:47;;;;;;;4.68;2.80;;;29.30;90.60;;;;;;5003783;28;20570;-76
2021/07/03 10:59:17;;;;;;;4.10;2.38;;;29.40;90.10;;;;;;5004174;28;20129;-76
2021/07/03 11:01:49;;;;;;;4.22;2.67;;;29.40;89.80;;;;;;5007521;28;20046;-77
2021/07/03 11:04:30;;;;;;;4.85;2.53;;;29.60;89.40;;;;;;5006037;28;20247;-77
2021/07/03 11:07:12;;;;;;;3.13;2.10;;;29.50;88.50;;;;;;5010013;28;20113;-76
2021/07/03 11:09:41;;;;;;;4.10;2.40;;;29.60;88.00;;;;;;5005572;28;20053;-77
2021/07/03 11:12:14;;;;;;;4.70;2.25;;;29.70;88.60;;;;;;4999619;28;20041;-77
2021/07/03 11:14:50;;;;;;;4.60;2.35;;;29.80;87.60;;;;;;5000716;28;20033;-77
2021/07/03 11:17:21;;;;;;;4.78;2.40;;;30.00;88.10;;;;;;5003317;28;20421;-76
2021/07/03 11:19:51;;;;;;;5.32;2.58;;;30.20;87.30;;;;;;5006946;28;20066;-76
2021/07/03 11:22:23;;;;;;;5.38;2.75;;;30.10;86.80;;;;;;4993342;28;20042;-76
2021/07/03 11:24:54;;;;;;;9.30;2.60;;;30.20;86.20;;;;;;5002709;28;20082;-76
2021/07/03 11:27:32;;;;;;;4.60;2.03;;;30.30;86.00;;;;;;5002466;28;20120;-76
2021/07/03 11:30:03;;;;;;;4.10;1.95;;;30.10;85.60;;;;;;5003801;28;20049;-77
2021/07/03 11:32:32;;;;;;;4.78;2.50;;;29.90;86.00;;;;;;5002112;28;20350;-76
2021/07/03 11:35:02;;;;;;;3.28;1.88;;;29.80;85.90;;;;;;5006829;28;20061;-77
2021/07/03 11:37:34;;;;;;;3.15;2.03;;;30.00;85.60;;;;;;5002019;28;20470;-78
2021/07/03 11:40:05;;;;;;;2.47;2.05;;;30.30;85.60;;;;;;4986708;28;20061;-76
2021/07/03 11:42:35;;;;;;;3.90;2.00;;;30.40;84.70;;;;;;5003322;28;20046;-78
2021/07/03 11:45:07;;;;;;;3.25;1.80;;;30.60;84.70;;;;;;4999885;28;20057;-77
2021/07/03 11:47:38;;;;;;;3.67;2.20;;;30.70;83.10;;;;;;4989313;28;20065;-77
2021/07/03 11:50:10;;;;;;;2.70;2.20;;;30.70;83.70;;;;;;5000526;28;20049;-77
2021/07/03 11:52:45;;;;;;;3.65;2.13;;;30.60;83.70;;;;;;5002666;28;20265;-77
2021/07/03 11:55:17;;;;;;;2.13;1.87;;;30.80;84.10;;;;;;5016970;28;20048;-77
2021/07/03 11:57:48;;;;;;;8.00;2.50;;;31.00;83.80;;;;;;5008055;28;20758;-77
2021/07/03 12:00:20;;;;;;;2.72;1.92;;;31.20;83.10;;;;;;5021567;28;20148;-77
2021/07/03 12:02:50;;;;;;;6.85;2.28;;;30.90;83.10;;;;;;5005759;28;20050;-78
2021/07/03 12:05:22;;;;;;;2.08;1.65;;;30.80;83.00;;;;;;5002240;28;20042;-76
2021/07/03 12:07:59;;;;;;;3.55;1.92;;;30.70;83.00;;;;;;4996873;28;20046;-77
2021/07/03 12:10:40;;;;;;;4.18;1.83;;;30.90;82.90;;;;;;5005044;28;20128;-79
2021/07/03 12:13:18;;;;;;;3.53;1.83;;;30.90;82.80;;;;;;4996440;28;20046;-77
2021/07/03 12:15:48;;;;;;;3.85;2.15;;;31.00;82.60;;;;;;5001501;28;20038;-79
2021/07/03 12:18:27;;;;;;;4.00;1.90;;;31.10;82.60;;;;;;4986065;28;20455;-78
2021/07/03 12:21:08;;;;;;;2.60;1.80;;;31.30;81.90;;;;;;5000781;28;20097;-79
2021/07/03 12:23:40;;;;;;;3.53;1.52;;;31.40;80.70;;;;;;5002122;28;20064;-78
2021/07/03 12:26:09;;;;;;;3.63;1.80;;;31.40;81.00;;;;;;5019916;28;20490;-78
2021/07/03 12:28:38;;;;;;;3.10;1.77;;;31.40;81.30;;;;;;4983770;28;20602;-78
2021/07/03 12:31:08;;;;;;;4.20;1.95;;;31.40;81.00;;;;;;5002675;28;20049;-75
2021/07/03 12:33:39;;;;;;;3.50;1.73;;;31.40;80.90;;;;;;5005583;28;20641;-75
2021/07/03 12:36:17;;;;;;;4.50;2.00;;;31.00;82.00;;;;;;5005859;28;20133;-75
2021/07/03 12:38:47;;;;;;;3.00;2.00;;;31.00;81.70;;;;;;4996638;28;20521;-75
2021/07/03 12:41:16;;;;;;;3.95;1.83;;;31.20;81.20;;;;;;4990226;28;20140;-75
2021/07/03 12:43:44;;;;;;;3.50;1.65;;;31.30;80.90;;;;;;5023729;28;20507;-74
2021/07/03 12:46:12;;;;;;;3.63;1.90;;;31.50;81.00;;;;;;5006024;28;20796;-78
2021/07/03 12:48:43;;;;;;;4.60;1.70;;;31.50;80.50;;;;;;5020249;28;20545;-75
2021/07/03 12:51:13;;;;;;;5.85;1.65;;;31.40;80.80;;;;;;5003780;28;20517;-75
2021/07/03 12:53:42;;;;;;;3.13;1.65;;;31.30;81.20;;;;;;5005262;28;20046;-75
2021/07/03 12:56:20;;;;;;;2.47;1.67;;;31.30;80.10;;;;;;5002293;28;20186;-75
2021/07/03 12:58:57;;;;;;;3.28;1.95;;;31.50;80.20;;;;;;5004742;28;20042;-75
2021/07/03 13:01:31;;;;;;;3.78;1.50;;;31.60;79.60;;;;;;5003321;28;20100;-76
2021/07/03 13:04:00;;;;;;;4.13;1.45;;;31.60;80.30;;;;;;5004572;28;20042;-75